Time;durP1;ratioP1;P1;durP2;ratioP2;P2;SDS_P1;SDS_P2;PMS_P1;PMS_P2;Temp;Humidity;BMP_temperature;BMP_pressure;BME280_temperature;BME280_humidity;BME280_pressure;Samples;Min_cycle;Max_cycle;Signal;HPM_P1;HPM_P2
2022/01/17 00:01:46;;;;;;;70.43;37.93;;;5.90;99.90;;;;;;4991909;28;20201;-76
2022/01/17 00:04:13;;;;;;;71.70;36.27;;;5.80;99.90;;;;;;5008368;28;20206;-76
2022/01/17 00:06:43;;;;;;;69.50;36.57;;;5.80;99.90;;;;;;5009175;28;20245;-76
2022/01/17 00:09:12;;;;;;;72.50;38.63;;;5.90;99.90;;;;;;5005343;28;20202;-77
2022/01/17 00:11:44;;;;;;;75.73;37.10;;;6.00;99.90;;;;;;5004064;28;20219;-77
2022/01/17 00:14:15;;;;;;;67.43;37.97;;;6.00;99.90;;;;;;5006608;28;20210;-77
2022/01/17 00:16:48;;;;;;;76.87;40.07;;;6.00;99.90;;;;;;4989483;28;20220;-77
2022/01/17 00:19:35;;;;;;;76.47;39.67;;;5.90;99.90;;;;;;4990329;28;20217;-77
2022/01/17 00:22:02;;;;;;;78.60;41.30;;;6.00;99.90;;;;;;5000256;28;20676;-77
2022/01/17 00:24:31;;;;;;;75.53;41.53;;;6.00;99.90;;;;;;5000643;28;20560;-76
2022/01/17 00:26:59;;;;;;;73.60;41.10;;;6.00;99.90;;;;;;5008969;28;20210;-77
2022/01/17 00:29:27;;;;;;;77.60;42.60;;;6.00;99.90;;;;;;5001858;28;20204;-77
2022/01/17 00:31:55;;;;;;;81.23;43.10;;;6.10;99.90;;;;;;4991825;28;20210;-77
2022/01/17 00:34:23;;;;;;;87.10;43.97;;;6.00;99.90;;;;;;5010548;28;20201;-76
2022/01/17 00:36:50;;;;;;;82.17;42.13;;;6.00;99.90;;;;;;4989473;28;20214;-77
2022/01/17 00:39:17;;;;;;;85.37;44.00;;;5.90;99.90;;;;;;5002480;28;20210;-76
2022/01/17 00:41:46;;;;;;;78.13;40.70;;;5.90;99.90;;;;;;4989707;28;20205;-77
2022/01/17 00:44:15;;;;;;;79.70;40.50;;;5.90;99.90;;;;;;5004272;28;20205;-76
2022/01/17 00:46:43;;;;;;;90.30;41.80;;;5.80;99.90;;;;;;5013485;28;20218;-77
2022/01/17 00:49:10;;;;;;;78.47;42.60;;;5.90;99.90;;;;;;4990362;28;20207;-77
2022/01/17 00:51:51;;;;;;;75.00;40.23;;;5.90;99.90;;;;;;5006273;28;20216;-76
2022/01/17 00:54:18;;;;;;;72.83;38.53;;;5.90;99.90;;;;;;5006811;28;20210;-77
2022/01/17 00:56:47;;;;;;;71.33;38.67;;;6.00;99.90;;;;;;4988952;28;20221;-77
2022/01/17 00:59:15;;;;;;;74.37;39.47;;;6.10;99.90;;;;;;5005387;28;20208;-77
2022/01/17 01:01:42;;;;;;;73.60;41.17;;;6.10;99.90;;;;;;5008262;28;20296;-77
2022/01/17 01:04:09;;;;;;;72.67;40.97;;;6.00;99.90;;;;;;5006510;28;20559;-77
2022/01/17 01:06:42;;;;;;;67.93;37.50;;;6.10;99.90;;;;;;5009023;28;20230;-76
2022/01/17 01:09:09;;;;;;;70.83;37.80;;;6.10;99.90;;;;;;5002033;28;20204;-76
2022/01/17 01:11:37;;;;;;;69.87;40.10;;;6.00;99.90;;;;;;4993880;28;20213;-77
2022/01/17 01:14:05;;;;;;;68.37;37.20;;;6.10;99.90;;;;;;4990450;28;20201;-76
2022/01/17 01:16:35;;;;;;;65.90;36.57;;;6.00;99.90;;;;;;4992218;28;20237;-76
2022/01/17 01:22:01;;;;;;;55.80;32.87;;;6.10;99.90;;;;;;4996737;28;20212;-76
2022/01/17 01:30:01;;;;;;;59.37;34.37;;;6.10;99.90;;;;;;5000853;28;20209;-76
2022/01/17 01:32:35;;;;;;;63.13;35.30;;;6.10;99.90;;;;;;5015494;28;20611;-76
2022/01/17 01:35:08;;;;;;;63.30;35.07;;;6.00;99.90;;;;;;5011829;28;20226;-76
2022/01/17 01:37:35;;;;;;;62.47;35.93;;;6.10;99.90;;;;;;5009492;28;20199;-76
2022/01/17 01:40:04;;;;;;;63.30;33.87;;;6.10;99.90;;;;;;5012824;28;20217;-77
2022/01/17 01:42:57;;;;;;;63.13;33.90;;;6.00;99.90;;;;;;5010685;28;20209;-77
2022/01/17 01:45:27;;;;;;;62.27;35.57;;;6.10;99.90;;;;;;5004199;28;20229;-76
2022/01/17 01:47:54;;;;;;;65.17;37.30;;;6.10;99.90;;;;;;4995180;28;20219;-77
2022/01/17 01:50:22;;;;;;;60.73;34.97;;;6.10;99.90;;;;;;5012475;28;20209;-76
2022/01/17 01:52:50;;;;;;;64.13;37.80;;;6.00;99.90;;;;;;4994888;28;20202;-76
2022/01/17 01:55:21;;;;;;;66.00;36.53;;;6.00;99.90;;;;;;4994525;28;20226;-76
2022/01/17 01:57:49;;;;;;;72.93;39.57;;;5.90;99.90;;;;;;4988026;28;20201;-76
2022/01/17 02:00:18;;;;;;;70.27;38.00;;;5.90;99.90;;;;;;5007757;28;20234;-76
2022/01/17 02:02:47;;;;;;;74.50;40.43;;;5.90;99.90;;;;;;5017308;28;20209;-76
2022/01/17 02:05:14;;;;;;;74.63;40.33;;;5.90;99.90;;;;;;5006503;28;20220;-76
2022/01/17 02:07:45;;;;;;;80.83;39.97;;;5.90;99.90;;;;;;4993957;28;20231;-76
2022/01/17 02:10:13;;;;;;;82.90;38.90;;;5.90;99.90;;;;;;5017465;28;20200;-76
2022/01/17 02:12:41;;;;;;;77.77;41.73;;;5.90;99.90;;;;;;5008999;28;20205;-76
2022/01/17 02:15:13;;;;;;;83.23;41.07;;;5.80;99.90;;;;;;5012823;28;20224;-76
2022/01/17 02:17:45;;;;;;;76.27;38.50;;;5.90;99.90;;;;;;5001758;28;20193;-76
2022/01/17 02:20:20;;;;;;;77.77;39.73;;;5.90;99.90;;;;;;5007903;28;20202;-77
2022/01/17 02:22:48;;;;;;;77.20;40.03;;;5.90;99.90;;;;;;4995106;28;20565;-76
2022/01/17 02:25:15;;;;;;;85.63;39.80;;;6.00;99.90;;;;;;5011709;28;20226;-76
2022/01/17 02:27:43;;;;;;;77.23;39.67;;;6.00;99.90;;;;;;5011713;28;20225;-76
2022/01/17 02:30:13;;;;;;;78.60;39.50;;;5.90;99.90;;;;;;5014309;28;20206;-75
2022/01/17 02:32:41;;;;;;;71.33;39.60;;;5.90;99.90;;;;;;4993647;28;20211;-76
2022/01/17 02:35:13;;;;;;;78.00;38.33;;;5.90;99.90;;;;;;4991808;28;20688;-76
2022/01/17 02:37:42;;;;;;;78.67;39.07;;;6.00;99.90;;;;;;4988539;28;20562;-76
2022/01/17 02:40:11;;;;;;;77.70;42.43;;;5.90;99.90;;;;;;4995408;28;20570;-76
2022/01/17 02:42:39;;;;;;;76.10;38.70;;;5.90;99.90;;;;;;5008466;28;20211;-76
2022/01/17 02:45:12;;;;;;;76.30;41.90;;;5.90;99.90;;;;;;5010739;28;20586;-76
2022/01/17 02:47:40;;;;;;;84.13;39.37;;;5.90;99.90;;;;;;4991228;28;20202;-76
2022/01/17 02:50:08;;;;;;;78.87;42.90;;;5.80;99.90;;;;;;4989997;28;20205;-76
2022/01/17 02:52:58;;;;;;;77.93;41.37;;;5.90;99.90;;;;;;4993288;28;20194;-76
2022/01/17 02:55:26;;;;;;;82.83;41.50;;;5.90;99.90;;;;;;5012097;28;20216;-76
2022/01/17 02:57:53;;;;;;;91.27;43.77;;;5.90;99.90;;;;;;4991190;28;20203;-76
2022/01/17 03:00:21;;;;;;;83.90;42.27;;;5.90;99.90;;;;;;5011294;28;20203;-76
2022/01/17 03:02:49;;;;;;;79.80;38.20;;;5.90;99.90;;;;;;4993931;28;20202;-76
2022/01/17 03:05:17;;;;;;;88.37;40.53;;;6.00;99.90;;;;;;4994489;28;20228;-76
2022/01/17 03:07:45;;;;;;;78.83;39.13;;;5.90;99.90;;;;;;5003064;28;20218;-76
2022/01/17 03:10:24;;;;;;;74.20;39.80;;;6.00;99.90;;;;;;5013555;28;20203;-76
2022/01/17 03:12:52;;;;;;;77.90;41.87;;;6.00;99.90;;;;;;5010767;28;20570;-76
2022/01/17 03:15:22;;;;;;;82.77;38.87;;;6.00;99.90;;;;;;5012032;28;20248;-76
2022/01/17 03:17:49;;;;;;;77.27;41.40;;;6.00;99.90;;;;;;4993341;28;20198;-76
2022/01/17 03:20:17;;;;;;;88.23;41.40;;;6.10;99.90;;;;;;5009631;28;20692;-76
2022/01/17 03:22:44;;;;;;;72.77;39.70;;;6.00;99.90;;;;;;4991770;28;20213;-76
2022/01/17 03:25:11;;;;;;;73.70;39.13;;;6.00;99.90;;;;;;4998188;28;20214;-76
2022/01/17 03:27:40;;;;;;;74.13;40.37;;;6.00;99.90;;;;;;4991894;28;20214;-76
2022/01/17 03:30:24;;;;;;;79.60;40.90;;;6.00;99.90;;;;;;4993509;28;20190;-76
2022/01/17 03:32:52;;;;;;;79.10;41.13;;;6.00;99.90;;;;;;5012930;28;20203;-76
2022/01/17 03:35:20;;;;;;;82.20;41.63;;;5.90;99.90;;;;;;4991339;28;20228;-76
2022/01/17 03:37:47;;;;;;;78.23;38.97;;;6.00;99.90;;;;;;5006006;28;20205;-76
2022/01/17 03:40:15;;;;;;;75.17;39.37;;;6.00;99.90;;;;;;4991618;28;20224;-76
2022/01/17 03:42:44;;;;;;;75.80;37.83;;;6.00;99.90;;;;;;5007092;28;20286;-76
2022/01/17 03:45:12;;;;;;;71.97;37.70;;;6.00;99.90;;;;;;5012239;28;20225;-76
2022/01/17 03:47:52;;;;;;;76.13;37.07;;;6.00;99.90;;;;;;4993381;28;20707;-76
2022/01/17 03:50:24;;;;;;;73.03;36.07;;;6.00;99.90;;;;;;5008276;28;20202;-76
2022/01/17 03:52:51;;;;;;;71.77;35.80;;;6.00;99.90;;;;;;5000578;28;20201;-76
2022/01/17 03:55:21;;;;;;;64.50;34.33;;;6.00;99.90;;;;;;4990593;28;20244;-76
2022/01/17 03:57:49;;;;;;;67.90;35.93;;;6.10;99.90;;;;;;4997557;28;20194;-76
2022/01/17 04:00:20;;;;;;;65.27;35.60;;;6.10;99.90;;;;;;5008062;28;20199;-76
2022/01/17 04:02:48;;;;;;;61.90;36.07;;;6.10;99.90;;;;;;5005516;28;20198;-76
2022/01/17 04:05:15;;;;;;;68.57;36.50;;;6.10;99.90;;;;;;4993680;28;20226;-76
2022/01/17 04:07:43;;;;;;;65.67;36.67;;;6.10;99.90;;;;;;4987933;28;20226;-76
2022/01/17 04:10:15;;;;;;;70.27;38.90;;;6.10;99.90;;;;;;4991921;28;20207;-75
2022/01/17 04:12:44;;;;;;;62.00;35.33;;;6.00;99.90;;;;;;5002655;28;20197;-76
2022/01/17 04:15:14;;;;;;;62.00;34.73;;;6.10;99.90;;;;;;5004391;28;20231;-76
2022/01/17 04:17:43;;;;;;;64.70;34.23;;;6.10;99.90;;;;;;5011665;28;20210;-76
2022/01/17 04:20:13;;;;;;;60.83;33.67;;;6.20;99.90;;;;;;4995651;28;20203;-76
2022/01/17 04:22:49;;;;;;;64.93;36.83;;;6.00;99.90;;;;;;4989174;28;20204;-76
2022/01/17 04:25:17;;;;;;;59.50;33.33;;;6.00;99.90;;;;;;5010066;28;20235;-76
2022/01/17 04:27:44;;;;;;;60.33;33.57;;;6.00;99.90;;;;;;4993025;28;20202;-76
2022/01/17 04:30:14;;;;;;;61.20;34.77;;;6.10;99.90;;;;;;5009658;28;20200;-76
2022/01/17 04:32:42;;;;;;;58.77;33.03;;;6.10;99.90;;;;;;4991945;28;20204;-76
2022/01/17 04:35:10;;;;;;;58.67;34.70;;;6.10;99.90;;;;;;5004338;28;20587;-75
2022/01/17 04:37:38;;;;;;;64.60;32.70;;;6.10;99.90;;;;;;4999003;28;20207;-76
2022/01/17 04:40:11;;;;;;;64.20;33.87;;;6.10;99.90;;;;;;4991370;28;20221;-76
2022/01/17 04:42:44;;;;;;;56.53;32.77;;;6.10;99.90;;;;;;5001879;28;20218;-76
2022/01/17 04:45:15;;;;;;;52.67;30.60;;;6.10;99.90;;;;;;4990359;28;20223;-76
2022/01/17 04:47:45;;;;;;;66.70;33.83;;;6.10;99.90;;;;;;5008486;28;20202;-76
2022/01/17 04:50:14;;;;;;;58.30;31.70;;;6.10;99.90;;;;;;4991110;28;20209;-76
2022/01/17 04:53:00;;;;;;;58.13;31.80;;;6.10;99.90;;;;;;5011334;28;20222;-76
2022/01/17 04:55:28;;;;;;;57.33;31.50;;;6.10;99.90;;;;;;5012788;28;20686;-76
2022/01/17 04:57:57;;;;;;;53.77;31.33;;;6.00;99.90;;;;;;5005784;28;20216;-76
2022/01/17 05:00:27;;;;;;;56.83;31.73;;;6.00;99.90;;;;;;5009381;28;20221;-76
2022/01/17 05:02:55;;;;;;;54.87;29.53;;;6.10;99.90;;;;;;5005900;28;20223;-76
2022/01/17 05:05:23;;;;;;;50.57;27.93;;;6.20;99.90;;;;;;5011712;28;20227;-76
2022/01/17 05:07:50;;;;;;;51.50;26.37;;;6.20;99.90;;;;;;5007430;28;20210;-76
2022/01/17 05:10:21;;;;;;;48.80;25.80;;;6.20;99.90;;;;;;5012408;28;20212;-76
2022/01/17 05:12:48;;;;;;;44.50;23.80;;;6.20;99.90;;;;;;5006981;28;20206;-76
2022/01/17 05:15:30;;;;;;;40.27;22.73;;;6.20;99.90;;;;;;5014895;28;20230;-76
2022/01/17 05:18:12;;;;;;;37.93;22.60;;;6.20;99.90;;;;;;5007526;28;20281;-75
2022/01/17 05:21:15;;;;;;;40.83;21.03;;;6.20;99.90;;;;;;4991935;28;20209;-76
2022/01/17 05:26:17;;;;;;;29.37;17.13;;;6.30;99.90;;;;;;5012698;28;20205;-76
2022/01/17 05:28:44;;;;;;;29.60;15.90;;;6.30;99.90;;;;;;5023701;28;20689;-76
2022/01/17 05:31:12;;;;;;;27.83;16.40;;;6.30;99.90;;;;;;5024223;28;20210;-76
2022/01/17 05:33:40;;;;;;;26.23;14.30;;;6.40;99.90;;;;;;5023607;28;20229;-76
2022/01/17 05:36:08;;;;;;;26.70;14.37;;;6.50;99.90;;;;;;5026683;28;20535;-76
2022/01/17 05:38:36;;;;;;;26.53;13.63;;;6.40;99.90;;;;;;5011018;28;20209;-76
2022/01/17 05:41:03;;;;;;;28.43;12.50;;;6.30;99.90;;;;;;5026526;28;20204;-76
2022/01/17 05:43:30;;;;;;;20.23;11.73;;;6.40;99.90;;;;;;5007459;28;20227;-74
2022/01/17 05:46:38;;;;;;;21.63;11.60;;;6.40;99.90;;;;;;5024230;28;20207;-76
2022/01/17 05:49:07;;;;;;;21.40;11.23;;;6.40;99.90;;;;;;5012435;28;20217;-76
2022/01/17 05:51:34;;;;;;;17.73;10.00;;;6.40;99.90;;;;;;5009671;28;20209;-76
2022/01/17 05:54:02;;;;;;;23.87;10.57;;;6.40;99.90;;;;;;5030939;28;20217;-77
2022/01/17 05:56:32;;;;;;;20.17;10.97;;;6.50;99.90;;;;;;5028201;28;20217;-76
2022/01/17 05:59:00;;;;;;;21.07;8.70;;;6.40;99.90;;;;;;5037837;28;20205;-75
2022/01/17 06:01:27;;;;;;;19.17;10.27;;;6.30;99.90;;;;;;5026138;28;20217;-76
2022/01/17 06:03:55;;;;;;;19.43;9.33;;;6.30;99.90;;;;;;5004145;28;20222;-76
2022/01/17 06:06:23;;;;;;;21.90;10.97;;;6.30;99.90;;;;;;5032589;28;20217;-75
2022/01/17 06:08:51;;;;;;;24.07;10.20;;;6.40;99.90;;;;;;5012718;28;20205;-76
2022/01/17 06:11:18;;;;;;;20.00;10.03;;;6.40;99.90;;;;;;5004146;28;20542;-73
2022/01/17 06:13:45;;;;;;;19.17;9.60;;;6.40;99.90;;;;;;5014781;28;20686;-75
2022/01/17 06:16:13;;;;;;;18.97;10.50;;;6.40;99.90;;;;;;5031737;28;20206;-76
2022/01/17 06:18:40;;;;;;;15.30;9.77;;;6.30;99.90;;;;;;5008010;28;20203;-76
2022/01/17 06:21:08;;;;;;;20.13;9.27;;;6.30;99.90;;;;;;5027159;28;20199;-75
2022/01/17 06:23:36;;;;;;;15.43;9.57;;;6.30;99.90;;;;;;5029945;28;20230;-75
2022/01/17 06:26:08;;;;;;;17.93;8.83;;;6.30;99.90;;;;;;5029901;28;20216;-76
2022/01/17 06:28:35;;;;;;;16.40;9.40;;;7.00;99.90;;;;;;5001445;28;20203;-74
2022/01/17 06:31:03;;;;;;;17.13;8.93;;;7.60;99.90;;;;;;5006638;28;20199;-75
2022/01/17 06:33:30;;;;;;;15.87;8.13;;;8.30;99.90;;;;;;5024181;28;20219;-75
2022/01/17 06:35:58;;;;;;;18.37;8.73;;;8.70;99.90;;;;;;5017431;28;20203;-75
2022/01/17 06:38:25;;;;;;;16.33;8.27;;;7.50;99.90;;;;;;5014209;28;20681;-76
2022/01/17 06:40:57;;;;;;;15.90;9.00;;;7.00;99.90;;;;;;5025492;28;20193;-76
2022/01/17 06:43:24;;;;;;;17.00;8.80;;;6.60;99.90;;;;;;5021021;28;20241;-76
2022/01/17 06:46:04;;;;;;;19.67;9.77;;;6.50;99.90;;;;;;5016017;28;20573;-76
2022/01/17 06:48:31;;;;;;;18.50;8.57;;;6.50;99.90;;;;;;5005670;28;20192;-76
2022/01/17 06:50:58;;;;;;;15.13;8.93;;;6.50;99.90;;;;;;5015683;28;20218;-76
2022/01/17 06:53:27;;;;;;;17.60;10.03;;;6.50;99.90;;;;;;5022776;28;20237;-76
2022/01/17 06:56:16;;;;;;;17.70;9.47;;;6.50;99.90;;;;;;5009403;28;20536;-76
2022/01/17 06:58:44;;;;;;;18.87;10.63;;;6.50;99.90;;;;;;5026455;28;20660;-75
2022/01/17 07:01:12;;;;;;;24.13;10.70;;;6.50;99.90;;;;;;5031006;28;20202;-75
2022/01/17 07:03:42;;;;;;;17.23;10.10;;;6.40;99.90;;;;;;5025238;28;20237;-76
2022/01/17 07:06:10;;;;;;;20.20;10.23;;;6.40;99.90;;;;;;5008338;28;20193;-76
2022/01/17 07:08:37;;;;;;;19.03;10.67;;;6.40;99.90;;;;;;5012038;28;20565;-76
2022/01/17 07:11:05;;;;;;;16.83;10.60;;;6.40;99.90;;;;;;5014527;28;20213;-75
2022/01/17 07:13:33;;;;;;;15.93;10.00;;;6.50;99.90;;;;;;5021415;28;20249;-76
2022/01/17 07:16:01;;;;;;;18.47;9.17;;;6.50;99.90;;;;;;5008473;28;20187;-75
2022/01/17 07:18:28;;;;;;;18.87;10.77;;;6.50;99.90;;;;;;5028442;28;20206;-76
2022/01/17 07:20:56;;;;;;;19.67;11.43;;;6.50;99.90;;;;;;5028817;28;20945;-76
2022/01/17 07:23:29;;;;;;;19.40;10.80;;;6.50;99.90;;;;;;5021842;28;20564;-76
2022/01/17 07:25:57;;;;;;;18.90;10.33;;;6.50;99.90;;;;;;5006524;28;20214;-76
2022/01/17 07:28:24;;;;;;;18.03;10.97;;;6.40;99.90;;;;;;5010757;28;20211;-76
2022/01/17 07:30:53;;;;;;;18.63;10.83;;;6.50;99.90;;;;;;5019341;28;20219;-75
2022/01/17 07:33:22;;;;;;;18.33;10.37;;;6.40;99.90;;;;;;5002581;28;20226;-76
2022/01/17 07:35:49;;;;;;;21.43;11.40;;;6.40;99.90;;;;;;5007272;28;20208;-75
2022/01/17 07:38:17;;;;;;;16.00;10.40;;;6.50;99.90;;;;;;5016997;28;20245;-77
2022/01/17 07:40:45;;;;;;;21.13;10.97;;;6.40;99.90;;;;;;5010777;28;20557;-76
2022/01/17 07:43:13;;;;;;;19.70;10.67;;;6.50;99.90;;;;;;5022562;28;20706;-76
2022/01/17 07:45:54;;;;;;;17.13;10.50;;;6.50;99.90;;;;;;5006976;28;20202;-76
2022/01/17 07:48:57;;;;;;;15.13;10.03;;;6.50;99.90;;;;;;5009181;28;20209;-76
2022/01/17 07:51:27;;;;;;;19.90;10.93;;;6.50;99.90;;;;;;5024148;28;20231;-76
2022/01/17 07:53:57;;;;;;;23.00;10.30;;;6.50;99.90;;;;;;5011159;28;20230;-76
2022/01/17 07:56:24;;;;;;;19.50;11.03;;;6.50;99.90;;;;;;5003286;28;20836;-76
2022/01/17 07:59:07;;;;;;;23.47;10.17;;;6.50;99.90;;;;;;5001370;28;20691;-76
2022/01/17 08:01:38;;;;;;;17.80;11.80;;;6.50;99.90;;;;;;5000031;28;20723;-75
2022/01/17 08:04:08;;;;;;;22.17;12.33;;;6.50;99.90;;;;;;5002252;28;20693;-77
2022/01/17 08:06:38;;;;;;;21.53;12.43;;;6.50;99.90;;;;;;5026238;28;20210;-76
2022/01/17 08:09:07;;;;;;;21.97;12.57;;;6.50;99.90;;;;;;5010874;28;20202;-75
2022/01/17 08:11:35;;;;;;;20.87;12.87;;;6.50;99.90;;;;;;5025413;28;20234;-75
2022/01/17 08:14:03;;;;;;;18.77;12.40;;;6.50;99.90;;;;;;5027931;28;20213;-75
2022/01/17 08:16:30;;;;;;;22.90;13.67;;;6.50;99.90;;;;;;5031979;28;20182;-75
2022/01/17 08:18:58;;;;;;;22.33;14.47;;;6.50;99.90;;;;;;5020797;28;20202;-75
2022/01/17 08:21:27;;;;;;;24.77;15.33;;;6.50;99.90;;;;;;5008432;28;20214;-75
2022/01/17 08:23:54;;;;;;;23.10;15.50;;;6.50;99.90;;;;;;5020276;28;20569;-75
2022/01/17 08:26:22;;;;;;;27.30;17.83;;;6.40;99.90;;;;;;5012137;28;20191;-75
2022/01/17 08:28:50;;;;;;;25.17;16.57;;;6.40;99.90;;;;;;5016238;28;20200;-75
2022/01/17 08:31:17;;;;;;;31.40;18.73;;;6.50;99.90;;;;;;5032058;28;20235;-75
2022/01/17 08:33:45;;;;;;;41.33;20.27;;;6.40;99.90;;;;;;5031427;28;20240;-75
2022/01/17 08:36:12;;;;;;;29.17;19.13;;;6.40;99.90;;;;;;5014963;28;20203;-75
2022/01/17 08:38:41;;;;;;;31.50;19.77;;;6.40;99.90;;;;;;5031453;28;20731;-75
2022/01/17 08:41:09;;;;;;;30.13;20.87;;;6.40;99.90;;;;;;5031293;28;20198;-75
2022/01/17 08:43:36;;;;;;;33.47;21.53;;;6.40;99.90;;;;;;5013803;28;20225;-75
2022/01/17 08:46:06;;;;;;;37.10;21.63;;;6.40;99.90;;;;;;5015267;28;20214;-75
2022/01/17 08:48:33;;;;;;;33.30;22.53;;;6.40;99.90;;;;;;5015231;28;20202;-75
2022/01/17 08:51:01;;;;;;;33.30;21.60;;;6.40;99.90;;;;;;5030833;28;20230;-75
2022/01/17 08:53:28;;;;;;;34.47;21.73;;;6.40;99.90;;;;;;5015454;28;20225;-75
2022/01/17 08:55:57;;;;;;;37.63;22.47;;;6.40;99.90;;;;;;5014766;28;20206;-75
2022/01/17 08:58:25;;;;;;;34.93;23.10;;;6.40;99.90;;;;;;5013745;28;20198;-75
2022/01/17 09:00:52;;;;;;;33.43;23.80;;;6.50;99.90;;;;;;5021333;28;20197;-75
2022/01/17 09:03:21;;;;;;;33.33;23.63;;;6.40;99.90;;;;;;5030456;28;20305;-76
2022/01/17 09:05:49;;;;;;;36.93;24.50;;;6.50;99.90;;;;;;5015057;28;20211;-76
2022/01/17 09:08:18;;;;;;;36.13;22.90;;;6.50;99.90;;;;;;5015592;28;20642;-75
2022/01/17 09:10:45;;;;;;;36.63;24.00;;;6.50;99.90;;;;;;5014461;28;20227;-75
2022/01/17 09:13:14;;;;;;;36.97;24.80;;;6.40;99.90;;;;;;5034994;28;20237;-75
2022/01/17 09:15:42;;;;;;;36.40;25.23;;;6.50;99.90;;;;;;5014973;28;20197;-75
2022/01/17 09:18:09;;;;;;;34.57;23.43;;;6.50;99.90;;;;;;5015176;28;20194;-75
2022/01/17 09:20:36;;;;;;;34.60;23.47;;;6.50;99.90;;;;;;5030693;28;20202;-75
2022/01/17 09:23:05;;;;;;;34.53;22.00;;;6.50;99.90;;;;;;5011351;28;20712;-75
2022/01/17 09:25:34;;;;;;;35.67;23.77;;;6.60;99.90;;;;;;5033257;28;20217;-75
2022/01/17 09:28:02;;;;;;;32.87;22.83;;;6.60;99.90;;;;;;5026996;28;20665;-75
2022/01/17 09:30:31;;;;;;;32.03;22.70;;;6.50;99.90;;;;;;5029579;28;20698;-76
2022/01/17 09:32:58;;;;;;;32.47;22.43;;;6.50;99.90;;;;;;5015160;28;20213;-76
2022/01/17 09:35:42;;;;;;;33.40;22.97;;;6.60;99.90;;;;;;5012706;28;20668;-76
2022/01/17 09:38:10;;;;;;;33.73;23.27;;;6.60;99.90;;;;;;5028574;28;20720;-75
2022/01/17 09:40:42;;;;;;;33.50;23.17;;;6.50;99.90;;;;;;5013647;28;20219;-76
2022/01/17 09:43:10;;;;;;;33.90;22.97;;;6.60;99.90;;;;;;5010065;28;20229;-75
2022/01/17 09:45:38;;;;;;;30.30;21.93;;;6.70;99.90;;;;;;5002711;28;20199;-75
2022/01/17 09:48:08;;;;;;;37.17;23.10;;;6.60;99.90;;;;;;5027201;28;20210;-76
2022/01/17 09:50:46;;;;;;;34.07;22.77;;;6.70;99.90;;;;;;5009087;28;20230;-75
2022/01/17 09:53:38;;;;;;;35.97;21.33;;;6.60;99.90;;;;;;5003908;28;20227;-75
2022/01/17 09:56:07;;;;;;;31.77;21.40;;;6.60;99.90;;;;;;5008256;28;20206;-75
2022/01/17 09:58:36;;;;;;;34.83;22.30;;;6.60;99.90;;;;;;5010364;28;20207;-75
2022/01/17 10:01:11;;;;;;;33.23;22.07;;;6.60;99.90;;;;;;5022877;28;20204;-76
2022/01/17 10:03:39;;;;;;;35.50;21.90;;;6.60;99.90;;;;;;5011317;28;20696;-75
2022/01/17 10:06:06;;;;;;;31.77;22.17;;;6.60;99.90;;;;;;5001683;28;20199;-75
2022/01/17 10:08:34;;;;;;;35.30;21.60;;;6.60;99.90;;;;;;5012710;28;20532;-75
2022/01/17 10:11:02;;;;;;;32.70;22.50;;;6.60;99.90;;;;;;5008477;28;20245;-76
2022/01/17 10:13:41;;;;;;;30.60;21.87;;;6.50;99.90;;;;;;5001224;28;20226;-76
2022/01/17 10:16:12;;;;;;;37.13;23.17;;;6.50;99.90;;;;;;5021893;28;20203;-76
2022/01/17 10:18:45;;;;;;;32.87;22.60;;;6.50;99.90;;;;;;5005650;28;20195;-76
2022/01/17 10:21:42;;;;;;;34.30;21.87;;;6.50;99.90;;;;;;5021155;28;20212;-75
2022/01/17 10:24:19;;;;;;;33.33;22.13;;;6.50;99.90;;;;;;5006425;28;20218;-75
2022/01/17 10:35:23;;;;;;;33.27;21.60;;;6.40;99.90;;;;;;5020452;28;20203;-76
2022/01/17 10:38:03;;;;;;;30.67;20.30;;;6.50;99.90;;;;;;5004708;28;20574;-76
2022/01/17 10:40:35;;;;;;;30.57;20.70;;;6.50;99.90;;;;;;5003418;28;20545;-76
2022/01/17 10:43:55;;;;;;;32.03;22.23;;;6.50;99.90;;;;;;5025993;28;20247;-76
2022/01/17 10:46:23;;;;;;;33.80;22.47;;;6.50;99.90;;;;;;5020485;28;20207;-75
2022/01/17 10:48:53;;;;;;;32.33;22.00;;;6.50;99.90;;;;;;5031768;28;20200;-75
2022/01/17 10:51:28;;;;;;;31.40;21.93;;;6.50;99.90;;;;;;5012266;28;20218;-78
2022/01/17 10:53:56;;;;;;;33.20;21.03;;;6.60;99.90;;;;;;5020101;28;20234;-75
2022/01/17 10:56:27;;;;;;;31.10;22.60;;;6.60;99.90;;;;;;5031127;28;20207;-72
2022/01/17 10:59:02;;;;;;;29.27;20.70;;;6.50;99.90;;;;;;5031333;28;20222;-75
2022/01/17 11:01:37;;;;;;;30.07;20.87;;;6.50;99.90;;;;;;5033679;28;20537;-75
2022/01/17 11:04:09;;;;;;;34.93;21.37;;;6.60;99.90;;;;;;5011922;28;20566;-74
2022/01/17 11:06:47;;;;;;;27.40;19.63;;;6.60;99.90;;;;;;5008331;28;20214;-74
2022/01/17 11:09:25;;;;;;;26.23;20.00;;;6.60;99.90;;;;;;5070915;27;20967;-74
2022/01/17 11:11:55;;;;;;;31.30;21.67;;;6.60;99.90;;;;;;5068586;28;20203;-74
2022/01/17 11:14:22;;;;;;;33.67;22.30;;;6.60;99.90;;;;;;5067691;28;20239;-74
2022/01/17 11:16:51;;;;;;;29.70;20.63;;;6.60;99.90;;;;;;5058426;28;20606;-74
2022/01/17 11:22:00;;;;;;;29.80;21.37;;;6.60;99.90;;;;;;5048482;28;20207;-74
2022/01/17 11:24:29;;;;;;;31.87;20.67;;;6.60;99.90;;;;;;5064995;28;20233;-73
2022/01/17 11:26:57;;;;;;;29.23;21.67;;;6.60;99.90;;;;;;5070939;28;20196;-74
2022/01/17 11:29:25;;;;;;;27.27;17.37;;;6.60;99.90;;;;;;5060570;28;20231;-75
2022/01/17 11:31:52;;;;;;;28.67;20.93;;;7.40;99.90;;;;;;5065116;28;20194;-74
2022/01/17 11:34:19;;;;;;;29.07;19.63;;;8.20;99.90;;;;;;5066534;28;20217;-74
2022/01/17 11:36:50;;;;;;;28.20;19.57;;;8.80;99.90;;;;;;5068843;28;20206;-74
2022/01/17 11:39:27;;;;;;;29.13;19.37;;;9.20;99.90;;;;;;5065678;28;20202;-74
2022/01/17 11:41:57;;;;;;;23.73;17.03;;;9.10;99.90;;;;;;5054595;28;20194;-74
2022/01/17 11:44:34;;;;;;;20.97;16.77;;;9.10;99.90;;;;;;5080813;28;20236;-73
2022/01/17 11:47:01;;;;;;;24.43;17.80;;;8.90;99.90;;;;;;5063387;28;20193;-74
2022/01/17 11:49:34;;;;;;;26.53;17.77;;;7.70;99.90;;;;;;5065120;28;20225;-72
2022/01/17 11:52:31;;;;;;;29.37;19.67;;;7.30;99.90;;;;;;5052443;28;20205;-72
2022/01/17 11:55:25;;;;;;;24.47;18.73;;;7.20;99.90;;;;;;5060855;28;20569;-72
2022/01/17 12:00:47;;;;;;;31.97;20.07;;;7.20;99.90;;;;;;5122078;27;21055;-72
2022/01/17 12:03:19;;;;;;;32.43;21.90;;;6.90;99.90;;;;;;5088699;28;20694;-73
2022/01/17 12:05:47;;;;;;;30.60;22.03;;;6.90;99.90;;;;;;5087036;28;20674;-73
2022/01/17 12:08:20;;;;;;;32.53;22.63;;;6.90;99.90;;;;;;5089835;28;20193;-72
2022/01/17 12:10:54;;;;;;;35.23;22.20;;;7.00;99.90;;;;;;5106878;28;20593;-72
2022/01/17 12:13:59;;;;;;;29.37;21.30;;;7.10;99.90;;;;;;5091654;28;20219;-72
2022/01/17 12:16:40;;;;;;;29.87;21.67;;;7.00;99.90;;;;;;5101911;28;20390;-72
2022/01/17 12:19:12;;;;;;;31.90;22.50;;;6.90;99.90;;;;;;5083478;28;20222;-72
2022/01/17 12:21:41;;;;;;;34.50;21.97;;;6.90;99.90;;;;;;5086274;28;20200;-72
2022/01/17 12:24:38;;;;;;;33.37;22.50;;;6.80;99.90;;;;;;5082377;28;20246;-72
2022/01/17 12:27:29;;;;;;;31.50;20.10;;;6.80;99.90;;;;;;5114352;27;20196;-72
2022/01/17 12:30:07;;;;;;;35.80;19.90;;;6.90;99.90;;;;;;5101992;28;20281;-72
2022/01/17 12:32:55;;;;;;;37.70;21.10;;;6.90;99.90;;;;;;5097482;28;20232;-72
2022/01/17 12:35:46;;;;;;;28.90;20.23;;;6.90;99.90;;;;;;5089996;28;20688;-71
2022/01/17 12:38:31;;;;;;;31.43;20.13;;;7.00;99.90;;;;;;5095405;28;20192;-71
2022/01/17 12:41:32;;;;;;;28.77;18.93;;;7.00;99.90;;;;;;5104086;28;20662;-71
2022/01/17 12:43:59;;;;;;;32.23;18.90;;;7.00;99.90;;;;;;5096271;28;20228;-71
2022/01/17 12:46:27;;;;;;;29.23;19.50;;;7.00;99.90;;;;;;5096826;28;20207;-71
2022/01/17 12:48:57;;;;;;;30.30;18.50;;;7.00;99.90;;;;;;5091486;28;20191;-71
2022/01/17 12:51:25;;;;;;;30.93;18.60;;;7.00;99.90;;;;;;5095391;28;20207;-71
2022/01/17 12:53:53;;;;;;;31.77;18.10;;;7.00;99.90;;;;;;5098624;28;20221;-71
2022/01/17 13:00:11;;;;;;;32.77;17.00;;;7.00;99.90;;;;;;5109660;28;20218;-71
2022/01/17 13:02:46;;;;;;;31.07;19.47;;;7.00;99.90;;;;;;5100096;28;20220;-71
2022/01/17 13:05:15;;;;;;;30.20;17.53;;;7.10;99.90;;;;;;5108334;28;20181;-71
2022/01/17 13:07:43;;;;;;;22.47;16.47;;;7.10;99.90;;;;;;5109202;28;20200;-71
2022/01/17 13:10:11;;;;;;;36.93;18.37;;;7.10;99.90;;;;;;5105283;28;20547;-71
2022/01/17 13:12:41;;;;;;;25.97;16.60;;;7.20;99.90;;;;;;5083211;28;20232;-73
2022/01/17 13:15:10;;;;;;;27.53;17.63;;;7.20;99.90;;;;;;5089600;28;20215;-73
2022/01/17 13:17:40;;;;;;;24.13;14.90;;;7.20;99.90;;;;;;5075598;28;20211;-73
2022/01/17 13:20:15;;;;;;;26.50;17.03;;;7.20;99.90;;;;;;5076773;28;20233;-73
2022/01/17 13:22:54;;;;;;;28.63;15.17;;;7.20;99.90;;;;;;5075428;28;20225;-73
2022/01/17 13:25:22;;;;;;;25.13;13.93;;;7.20;99.90;;;;;;5074374;28;20201;-73
2022/01/17 13:27:53;;;;;;;27.47;14.87;;;7.20;99.90;;;;;;5070449;28;20193;-72